Nearby METAR Reports

 

KSNK - Snyder/Winston, Texas, USA
Distance from station: SSE 25mi, 41km
Updated: Fri, 10-Jul-2020 1:15am CDT
Clear
Clear
 Wind from SSE
Wind: SSE 10 mph , 17 km/h
Temperature: 84°F , 29°C
Heat Index: 86°F , 30°C
Dew Point: 66°F , 19°C
Humidity: 55%
Barometer: 29.95 inHg , 1014.2 hPa
Clouds: Clear
Visibility: 10 miles , 16 km
2020/07/10 06:15 KSNK 100615Z AUTO 16009KT 10SM CLR 29/19 A2995 RMK AO2 T02900190
KSWW - Sweetwater, Texas, USA
Distance from station: SE 56mi, 90km
Updated: Fri, 10-Jul-2020 1:15am CDT
Clear
Clear
 Wind from SSE
Wind: SSE 17 mph , 28 km/h, Gust: 22 mph , 35 km/h
Temperature: 84°F , 29°C
Heat Index: 86°F , 30°C
Dew Point: 66°F , 19°C
Humidity: 55%
Barometer: 29.96 inHg , 1014.6 hPa
Clouds: Clear
Visibility: 10 miles , 16 km
2020/07/10 06:15 KSWW 100615Z AUTO 16015G19KT 10SM CLR 29/19 A2996 RMK AO2 T02900185
 
KLBB - Lubbock, Texas, USA
Distance from station: NW 59mi, 94km
Updated: Fri, 10-Jul-2020 12:53am CDT
Partly cloudy
Partly cloudy
 Wind from SSE
Wind: SSE 15 mph , 24 km/h
Temperature: 82°F , 28°C
Heat Index: 84°F , 29°C
Dew Point: 64°F , 18°C
Humidity: 55%
Barometer: 29.96 inHg , 1014.6 hPa
Clouds: Partly cloudy
Visibility: 10 miles , 16 km
Cloud details: Partly cloudy 25000 ft
2020/07/10 05:53 KLBB 100553Z 15013KT 10SM SCT250 28/18 A2996 RMK AO2 SLP078 60000 T02830183 10383 20283 404060267 51023
KPVW - Plainview, Texas, USA
Distance from station: NNW 85mi, 137km
Updated: Fri, 10-Jul-2020 1:15am CDT
Clear
Clear
 Wind from S
Wind: S 8 mph , 13 km/h
Temperature: 81°F , 27°C
Heat Index: 82°F , 28°C
Dew Point: 61°F , 16°C
Humidity: 51%
Barometer: 29.97 inHg , 1014.9 hPa
Clouds: Clear
Visibility: 10 miles , 16 km
2020/07/10 06:15 KPVW 100615Z AUTO 17007KT 10SM CLR 27/16 A2997 RMK AO2 T02650160
 
KDYS - Dyess Afb/Abilen, Texas, USA
Distance from station: ESE 88mi, 141km
Updated: Fri, 10-Jul-2020 12:56am CDT
Clear
Clear
 Wind from SSE
Wind: SSE 14 mph , 22 km/h
Temperature: 84°F , 29°C
Heat Index: 85°F , 29°C
Dew Point: 64°F , 18°C
Humidity: 51%
Barometer: 29.89 inHg , 1012.2 hPa
Clouds: Clear
Visibility: 10 miles , 16 km
2020/07/10 05:56 KDYS 100556Z AUTO 16012KT 10SM CLR 29/18 A2989 RMK AO2 SLP067 T02850183 10360 20285 403680241 50013
KGNC - Seminole, Texas, USA
Distance from station: WSW 89mi, 144km
Updated: Fri, 10-Jul-2020 1:15am CDT
Clear
Clear
 Wind from S
Wind: S 10 mph , 17 km/h
Temperature: 88°F , 31°C
Heat Index: 89°F , 32°C
Dew Point: 63°F , 17°C
Humidity: 43%
Barometer: 30.02 inHg , 1016.6 hPa
Clouds: Clear
Visibility: 10 miles , 16 km
2020/07/10 06:15 KGNC 100615Z AUTO 19009KT 10SM CLR 31/17 A3002 RMK AO2 T03060165
 
KE11 - Andrews, Texas, USA
Distance from station: WSW 93mi, 149km
Updated: Fri, 10-Jul-2020 1:15am CDT
Clear
Clear
 Wind from S
Wind: S 17 mph , 28 km/h, Gust: 24 mph , 39 km/h
Temperature: 88°F , 31°C
Heat Index: 88°F , 31°C
Dew Point: 61°F , 16°C
Humidity: 40%
Barometer: 29.97 inHg , 1014.9 hPa
Clouds: Clear
Visibility: 10 miles , 16 km
2020/07/10 06:15 KE11 100615Z AUTO 19015G21KT 10SM CLR 31/16 A2997 RMK AO2 T03050164
KABI - Abilene, Texas, USA
Distance from station: ESE 96mi, 154km
Updated: Fri, 10-Jul-2020 12:52am CDT
Clear
Clear
 Wind from S
Wind: S 14 mph , 22 km/h
Temperature: 84°F , 29°C
Heat Index: 86°F , 30°C
Dew Point: 66°F , 19°C
Humidity: 55%
Barometer: 29.91 inHg , 1012.9 hPa
Clouds: Clear
Visibility: 10 miles , 16 km
2020/07/10 05:52 KABI 100552Z 17012KT 10SM CLR 29/19 A2991 RMK AO2 SLP097 T02940194 10361 20289 403720244 50013
 
KMAF - Midland, Texas, USA
Distance from station: SW 96mi, 154km
Updated: Fri, 10-Jul-2020 12:53am CDT
Clear
Clear
 Wind from S
Wind: S 16 mph , 26 km/h
Temperature: 90°F , 32°C
Dew Point: 61°F , 16°C
Humidity: 38%
Barometer: 29.96 inHg , 1014.6 hPa
Clouds: Clear
Visibility: 10 miles , 16 km
2020/07/10 05:53 KMAF 100553Z AUTO 17014KT 10SM CLR 32/16 A2996 RMK AO2 SLP085 T03170161 10400 20317 404060256 51022
KCDS - Childress, Texas, USA
Distance from station: NNE 110mi, 177km
Updated: Fri, 10-Jul-2020 12:53am CDT
Clear
Clear
 Wind from ESE
Wind: ESE 7 mph , 11 km/h
Temperature: 82°F , 28°C
Heat Index: 86°F , 30°C
Dew Point: 70°F , 21°C
Humidity: 66%
Barometer: 29.89 inHg , 1012.2 hPa
Clouds: Clear
Visibility: 10 miles , 16 km
2020/07/10 05:53 KCDS 100553Z AUTO 12006KT 10SM CLR 28/21 A2989 RMK AO2 SLP086 6//// T02780211 10367 20244 404060244 51020 PNO $
 
KSJT - San Angelo, Texas, USA
Distance from station: SSE 121mi, 194km
Updated: Fri, 10-Jul-2020 12:51am CDT
Clear
Clear
 Wind from SSE
Wind: SSE 8 mph , 13 km/h
Temperature: 84°F , 29°C
Heat Index: 85°F , 29°C
Dew Point: 64°F , 18°C
Humidity: 51%
Barometer: 29.92 inHg , 1013.2 hPa
Clouds: Clear
Visibility: 10 miles , 16 km
2020/07/10 05:51 KSJT 100551Z AUTO 16007KT 10SM CLR 29/18 A2992 RMK AO2 SLP102 T02890183 10372 20283 403890256 51012
KHOB - Hobbs/Lea Co., New Mexico, USA
Distance from station: WSW 122mi, 196km
Updated: Fri, 10-Jul-2020 1:15am CDT
Clear
Clear
 Wind from S
Wind: S 23 mph , 37 km/h
Temperature: 86°F , 30°C
Heat Index: 86°F , 30°C
Dew Point: 61°F , 16°C
Humidity: 43%
Barometer: 29.99 inHg , 1015.6 hPa
Clouds: Clear
Visibility: 10 miles , 16 km
2020/07/10 06:15 KHOB 100615Z AUTO 17020KT 10SM CLR 30/16 A2999 RMK AO2
 
KCOM - Coleman Muni, Texas, USA
Distance from station: SE 131mi, 212km
Updated: Fri, 10-Jul-2020 1:15am CDT
Clear
Clear
 Wind from S
Wind: S 6 mph , 9 km/h
Temperature: 81°F , 27°C
Heat Index: 83°F , 28°C
Dew Point: 66°F , 19°C
Humidity: 62%
Barometer: 29.94 inHg , 1013.9 hPa
Clouds: Clear
Visibility: 10 miles , 16 km
2020/07/10 06:15 KCOM 100615Z AUTO 18005KT 10SM CLR 27/19 A2994 RMK AO2 T02710186
KBKD - Breckenridge, Texas, USA
Distance from station: E 134mi, 215km
Updated: Fri, 10-Jul-2020 1:15am CDT
Clear
Clear
 Wind from SE
Wind: SE 5 mph , 7 km/h
Temperature: 84°F , 29°C
Heat Index: 87°F , 31°C
Dew Point: 68°F , 20°C
Humidity: 58%
Barometer: 29.91 inHg , 1012.9 hPa
Clouds: Clear
Visibility: 7 miles , 11 km
2020/07/10 06:15 KBKD 100615Z AUTO 13004KT 7SM CLR 29/20 A2991 RMK AO2 T02850202
 
KF05 - Vernon Wilbarger, Texas, USA
Distance from station: NE 137mi, 220km
Updated: Fri, 10-Jul-2020 1:15am CDT
Clear
Clear
 Wind from SE
Wind: SE 14 mph , 22 km/h
Temperature: 86°F , 30°C
Heat Index: 92°F , 33°C
Dew Point: 72°F , 22°C
Humidity: 62%
Barometer: 29.88 inHg , 1011.9 hPa
Clouds: Clear
Visibility: 10 miles , 16 km
2020/07/10 06:15 KF05 100615Z AUTO 14012KT 10SM CLR 30/22 A2988 RMK AO1 T02970223